createdAt,value
2017-11-04T00:00:27.658Z,1000.55
2017-11-04T00:01:37.835Z,1000.56
2017-11-04T00:02:48.446Z,1000.57
2017-11-04T00:03:58.579Z,1000.59
2017-11-04T00:05:08.977Z,1000.63
2017-11-04T00:06:19.399Z,1000.58
2017-11-04T00:07:29.805Z,1000.54
2017-11-04T00:08:39.540Z,1000.56
2017-11-04T00:09:49.933Z,1000.54
2017-11-04T00:11:00.014Z,1000.47
2017-11-04T00:12:10.401Z,1000.43
2017-11-04T00:13:20.143Z,1000.43
2017-11-04T00:14:30.543Z,1000.37
2017-11-04T00:15:40.948Z,1000.36
2017-11-04T00:16:51.358Z,1000.39
2017-11-04T00:18:01.430Z,1000.37
2017-11-04T00:19:11.832Z,1000.41
2017-11-04T00:20:22.287Z,1000.37
2017-11-04T00:21:32.752Z,1000.36
2017-11-04T00:22:43.157Z,1000.36
2017-11-04T00:23:54.260Z,1000.36
2017-11-04T00:25:05.309Z,1000.35
2017-11-04T00:26:15.436Z,1000.34
2017-11-04T00:27:25.500Z,1000.35
2017-11-04T00:28:35.573Z,1000.35
2017-11-04T00:29:45.636Z,1000.32
2017-11-04T00:30:55.710Z,1000.31
2017-11-04T00:32:06.124Z,1000.35
2017-11-04T00:33:16.203Z,1000.34
2017-11-04T00:34:26.637Z,1000.36
2017-11-04T00:35:37.036Z,1000.3
2017-11-04T00:36:47.090Z,1000.28
2017-11-04T00:37:57.491Z,1000.29
2017-11-04T00:39:07.906Z,1000.33
2017-11-04T00:40:17.989Z,1000.22
2017-11-04T00:41:28.071Z,1000.22
2017-11-04T00:42:38.480Z,1000.19
2017-11-04T00:43:48.536Z,1000.16
2017-11-04T00:44:58.959Z,1000.13
2017-11-04T00:46:09.345Z,1000.09
2017-11-04T00:47:19.741Z,1000.06
2017-11-04T00:48:30.153Z,1000.02
2017-11-04T00:49:40.558Z,1000
2017-11-04T00:50:50.960Z,1000
2017-11-04T00:52:01.024Z,999.97
2017-11-04T00:53:11.931Z,999.99
2017-11-04T00:54:22.036Z,999.98
2017-11-04T00:55:32.734Z,999.98
2017-11-04T00:56:43.599Z,1000.01
2017-11-04T00:57:54.001Z,999.99
2017-11-04T00:59:04.418Z,1000.02
2017-11-04T01:00:14.489Z,999.99
2017-11-04T01:01:24.623Z,999.95
2017-11-04T01:02:34.926Z,999.93
2017-11-04T01:03:45.232Z,999.87
2017-11-04T01:04:55.850Z,999.84
2017-11-04T01:06:05.961Z,999.86
2017-11-04T01:07:16.346Z,999.83
2017-11-04T01:08:26.706Z,999.8
2017-11-04T01:09:37.100Z,999.8
2017-11-04T01:10:47.171Z,999.76
2017-11-04T01:11:57.577Z,999.73
2017-11-04T01:13:07.976Z,999.69
2017-11-04T01:14:19.243Z,999.65
2017-11-04T01:15:31.304Z,999.66
2017-11-04T01:16:42.155Z,999.67
2017-11-04T01:17:52.130Z,999.67
2017-11-04T01:19:04.118Z,999.68
2017-11-04T01:20:14.564Z,999.68
2017-11-04T01:21:25.008Z,999.64
2017-11-04T01:22:35.419Z,999.6
2017-11-04T01:23:45.480Z,999.58
2017-11-04T01:24:55.883Z,999.56
2017-11-04T01:26:06.522Z,999.54
2017-11-04T01:27:16.917Z,999.56
2017-11-04T01:28:27.536Z,999.54
2017-11-04T01:29:38.724Z,999.56
2017-11-04T01:30:50.221Z,999.47
2017-11-04T01:32:00.727Z,999.47
2017-11-04T01:33:10.799Z,999.39
2017-11-04T01:34:20.871Z,999.37
2017-11-04T01:35:30.954Z,999.4
2017-11-04T01:36:41.082Z,999.36
2017-11-04T01:37:51.214Z,999.41
2017-11-04T01:39:01.610Z,999.41
2017-11-04T01:40:12.010Z,999.43
2017-11-04T01:41:22.407Z,999.42
2017-11-04T01:42:32.483Z,999.37
2017-11-04T01:43:42.893Z,999.37
2017-11-04T01:44:52.965Z,999.32
2017-11-04T01:46:03.354Z,999.31
2017-11-04T01:47:13.755Z,999.3
2017-11-04T01:48:24.172Z,999.28
2017-11-04T01:49:35.747Z,999.26
2017-11-04T01:50:46.731Z,999.26
2017-11-04T01:51:56.803Z,999.24
2017-11-04T01:53:07.810Z,999.26
2017-11-04T01:54:17.880Z,999.23
2017-11-04T01:55:28.141Z,999.26
2017-11-04T01:56:38.549Z,999.26
2017-11-04T01:57:48.964Z,999.24
2017-11-04T01:58:59.365Z,999.22
2017-11-04T02:00:09.527Z,999.23
2017-11-04T02:01:19.922Z,999.2
2017-11-04T02:02:30.309Z,999.19
2017-11-04T02:03:40.373Z,999.15
2017-11-04T02:04:50.779Z,999.17
2017-11-04T02:06:01.178Z,999.18
2017-11-04T02:07:11.582Z,999.18
2017-11-04T02:08:21.647Z,999.2
2017-11-04T02:09:32.044Z,999.17
2017-11-04T02:10:42.131Z,999.15
2017-11-04T02:11:52.533Z,999.18
2017-11-04T02:13:02.595Z,999.17
2017-11-04T02:14:12.986Z,999.15
2017-11-04T02:15:23.059Z,999.18
2017-11-04T02:16:33.128Z,999.18
2017-11-04T02:17:42.869Z,999.14
2017-11-04T02:18:53.295Z,999.12
2017-11-04T02:20:03.367Z,999.13
2017-11-04T02:21:13.770Z,999.11
2017-11-04T02:22:24.180Z,999.11
2017-11-04T02:23:34.593Z,999.08
2017-11-04T02:24:45.041Z,999.12
2017-11-04T02:25:55.159Z,999.11
2017-11-04T02:27:05.558Z,999.09
2017-11-04T02:28:15.957Z,999.1
2017-11-04T02:29:26.354Z,999.09
2017-11-04T02:30:37.128Z,999.07
2017-11-04T02:31:47.194Z,999.08
2017-11-04T02:32:57.581Z,999.05
2017-11-04T02:34:07.647Z,999.04
2017-11-04T02:35:18.989Z,998.98
2017-11-04T02:36:29.395Z,998.95
2017-11-04T02:37:39.797Z,998.93
2017-11-04T02:38:50.184Z,998.92
2017-11-04T02:40:00.587Z,998.94
2017-11-04T02:41:11.243Z,998.94
2017-11-04T02:42:21.680Z,998.9
2017-11-04T02:43:31.419Z,998.89
2017-11-04T02:44:41.526Z,998.91
2017-11-04T02:45:51.586Z,998.97
2017-11-04T02:47:02.000Z,998.96
2017-11-04T02:48:12.393Z,998.91
2017-11-04T02:49:22.787Z,998.9
2017-11-04T02:50:33.185Z,998.95
2017-11-04T02:51:43.599Z,998.87
2017-11-04T02:52:53.659Z,998.89
2017-11-04T02:54:03.733Z,998.83
2017-11-04T02:55:14.359Z,998.84
2017-11-04T02:56:24.109Z,998.83
2017-11-04T02:57:34.502Z,998.78
2017-11-04T02:58:44.237Z,998.79
2017-11-04T02:59:54.360Z,998.78
2017-11-04T03:01:06.162Z,998.74
2017-11-04T03:33:02.279Z,998.6
2017-11-04T03:34:12.342Z,998.58
2017-11-04T03:35:22.088Z,998.57
2017-11-04T03:36:32.494Z,998.61
2017-11-04T03:37:42.885Z,998.61
2017-11-04T03:38:54.083Z,998.62
2017-11-04T03:40:04.480Z,998.6
2017-11-04T03:41:14.893Z,998.62
2017-11-04T03:42:25.761Z,998.66
2017-11-04T03:43:37.048Z,998.64
2017-11-04T03:44:49.744Z,998.58
2017-11-04T03:46:00.313Z,998.57
2017-11-04T03:47:12.040Z,998.57
2017-11-04T03:48:22.555Z,998.58
2017-11-04T03:49:33.175Z,998.6
2017-11-04T03:50:45.248Z,998.6
2017-11-04T03:51:55.991Z,998.59
2017-11-04T03:53:06.062Z,998.58
2017-11-04T03:54:16.461Z,998.57
2017-11-04T03:55:26.857Z,998.53
2017-11-04T03:58:02.850Z,998.5
2017-11-04T03:59:13.668Z,998.49
2017-11-04T04:00:24.078Z,998.5
2017-11-04T04:01:34.171Z,998.53
2017-11-04T04:02:44.626Z,998.51
2017-11-04T04:03:54.683Z,998.48
2017-11-04T04:05:05.086Z,998.46
2017-11-04T04:06:15.376Z,998.43
2017-11-04T04:07:25.877Z,998.39
2017-11-04T04:08:36.262Z,998.38
2017-11-04T04:09:46.576Z,998.35
2017-11-04T04:10:56.977Z,998.4
2017-11-04T04:12:06.713Z,998.41
2017-11-04T04:13:17.098Z,998.42
2017-11-04T04:14:27.214Z,998.42
2017-11-04T04:15:37.608Z,998.44
2017-11-04T04:16:48.209Z,998.45
2017-11-04T04:17:59.003Z,998.45
2017-11-04T04:19:09.424Z,998.43
2017-11-04T04:20:20.606Z,998.45
2017-11-04T04:21:31.504Z,998.49
2017-11-04T04:22:42.236Z,998.44
2017-11-04T04:23:52.562Z,998.43
2017-11-04T04:25:03.868Z,998.4
2017-11-04T04:26:14.631Z,998.36
2017-11-04T04:27:25.176Z,998.38
2017-11-04T04:28:35.564Z,998.4
2017-11-04T04:29:45.634Z,998.35
2017-11-04T04:30:56.041Z,998.34
2017-11-04T04:32:06.502Z,998.31
2017-11-04T04:33:16.891Z,998.29
2017-11-04T04:34:26.964Z,998.29
2017-11-04T04:35:38.030Z,998.28
2017-11-04T04:39:39.232Z,998.32
2017-11-04T04:40:49.645Z,998.32
2017-11-04T04:42:02.019Z,998.31
2017-11-04T04:43:16.770Z,998.33
2017-11-04T04:44:58.704Z,998.35
2017-11-04T04:46:11.807Z,998.34
2017-11-04T04:47:28.804Z,998.34
2017-11-04T04:48:52.391Z,998.35
2017-11-04T04:51:33.922Z,998.31
2017-11-04T04:52:56.594Z,998.33
2017-11-04T04:54:07.013Z,998.35
2017-11-04T04:55:17.416Z,998.38
2017-11-04T04:56:27.555Z,998.36
2017-11-04T04:57:37.934Z,998.4
2017-11-04T04:58:48.354Z,998.38
2017-11-04T04:59:58.742Z,998.36
2017-11-04T05:01:09.123Z,998.3
2017-11-04T05:02:19.514Z,998.4
2017-11-04T05:03:29.912Z,998.34
2017-11-04T05:04:39.988Z,998.37
2017-11-04T05:05:50.055Z,998.33
2017-11-04T05:07:00.113Z,998.36
2017-11-04T05:08:10.200Z,998.37
2017-11-04T05:09:20.613Z,998.37
2017-11-04T05:10:31.018Z,998.38
2017-11-04T05:11:41.420Z,998.37
2017-11-04T05:12:51.533Z,998.37
2017-11-04T05:14:01.939Z,998.36
2017-11-04T05:15:12.340Z,998.34
2017-11-04T05:16:22.415Z,998.33
2017-11-04T05:17:32.790Z,998.33
2017-11-04T05:18:43.168Z,998.31
2017-11-04T05:19:53.233Z,998.32
2017-11-04T05:21:04.500Z,998.29
2017-11-04T05:22:15.354Z,998.29
2017-11-04T05:23:25.440Z,998.29
2017-11-04T05:24:35.829Z,998.27
2017-11-04T05:25:46.229Z,998.24
2017-11-04T05:26:56.635Z,998.28
2017-11-04T05:28:06.724Z,998.25
2017-11-04T05:29:16.789Z,998.31
2017-11-04T05:30:27.006Z,998.31
2017-11-04T05:31:37.472Z,998.3
2017-11-04T05:32:48.105Z,998.33
2017-11-04T05:33:58.555Z,998.34
2017-11-04T05:35:09.204Z,998.31
2017-11-04T05:37:46.435Z,998.32
2017-11-04T05:38:57.500Z,998.35
2017-11-04T05:40:08.896Z,998.34
2017-11-04T05:41:20.467Z,998.32
2017-11-04T05:42:31.293Z,998.36
2017-11-04T05:43:41.849Z,998.4
2017-11-04T05:44:52.704Z,998.39
2017-11-04T05:46:04.290Z,998.4
2017-11-04T05:47:15.964Z,998.41
2017-11-04T05:48:26.654Z,998.43
2017-11-04T05:49:37.064Z,998.42
2017-11-04T05:50:47.670Z,998.5
2017-11-04T05:51:58.342Z,998.48
2017-11-04T05:53:08.646Z,998.46
2017-11-04T05:54:20.008Z,998.5
2017-11-04T05:55:30.591Z,998.5
2017-11-04T05:56:41.751Z,998.47
2017-11-04T05:57:52.882Z,998.51
2017-11-04T05:59:03.495Z,998.53
2017-11-04T06:00:14.235Z,998.55
2017-11-04T06:01:25.190Z,998.56
2017-11-04T06:02:36.051Z,998.6
2017-11-04T06:03:46.550Z,998.61
2017-11-04T06:04:56.979Z,998.58
2017-11-04T06:07:33.012Z,998.64
2017-11-04T06:08:43.459Z,998.64
2017-11-04T06:09:54.303Z,998.63
2017-11-04T06:11:04.706Z,998.64
2017-11-04T06:12:14.828Z,998.62
2017-11-04T06:13:25.231Z,998.61
2017-11-04T06:14:35.632Z,998.64
2017-11-04T06:15:46.040Z,998.62
2017-11-04T06:16:56.432Z,998.57
2017-11-04T06:18:06.539Z,998.58
2017-11-04T06:19:16.599Z,998.57
2017-11-04T06:20:26.681Z,998.58
2017-11-04T06:21:37.078Z,998.54
2017-11-04T06:22:47.160Z,998.55
2017-11-04T06:23:57.612Z,998.54
2017-11-04T06:25:07.691Z,998.58
2017-11-04T06:26:18.084Z,998.58
2017-11-04T06:27:28.482Z,998.53
2017-11-04T06:28:38.560Z,998.6
2017-11-04T06:29:48.697Z,998.6
2017-11-04T06:30:59.088Z,998.59
2017-11-04T06:32:09.159Z,998.63
2017-11-04T06:33:19.555Z,998.64
2017-11-04T06:34:29.953Z,998.59
2017-11-04T06:35:40.365Z,998.58
2017-11-04T06:36:50.111Z,998.61
2017-11-04T06:38:00.513Z,998.58
2017-11-04T06:39:10.942Z,998.59
2017-11-04T06:40:21.329Z,998.64
2017-11-04T06:41:31.732Z,998.63
2017-11-04T06:42:42.125Z,998.66
2017-11-04T06:43:52.197Z,998.7
2017-11-04T06:45:02.604Z,998.66
2017-11-04T06:46:13.016Z,998.65
2017-11-04T06:47:23.147Z,998.6
2017-11-04T06:48:33.213Z,998.66
2017-11-04T06:49:43.607Z,998.67
2017-11-04T06:50:53.688Z,998.67
2017-11-04T06:52:04.085Z,998.71
2017-11-04T06:53:13.826Z,998.71
2017-11-04T06:54:23.922Z,998.73
2017-11-04T06:55:34.317Z,998.73
2017-11-04T06:56:44.713Z,998.76
2017-11-04T06:57:55.125Z,998.75
2017-11-04T06:59:05.195Z,998.73
2017-11-04T07:00:15.602Z,998.79
2017-11-04T07:01:25.694Z,998.71
2017-11-04T07:02:36.098Z,998.78
2017-11-04T07:03:46.490Z,998.78
2017-11-04T07:04:56.604Z,998.76
2017-11-04T07:06:06.686Z,998.77
2017-11-04T07:07:16.757Z,998.74
2017-11-04T07:08:27.149Z,998.75
2017-11-04T07:09:37.494Z,998.75
2017-11-04T07:10:47.621Z,998.74
2017-11-04T07:11:58.014Z,998.74
2017-11-04T07:13:08.390Z,998.76
2017-11-04T07:14:18.731Z,998.8
2017-11-04T07:15:29.131Z,998.79
2017-11-04T07:16:39.196Z,998.83
2017-11-04T07:17:49.262Z,998.83
2017-11-04T07:18:59.678Z,998.8
2017-11-04T07:20:09.757Z,998.81
2017-11-04T07:21:20.153Z,998.85
2017-11-04T07:22:30.286Z,998.87
2017-11-04T07:23:40.367Z,998.81
2017-11-04T07:24:50.462Z,998.85
2017-11-04T07:26:00.540Z,998.84
2017-11-04T07:27:10.956Z,998.85
2017-11-04T07:28:20.710Z,998.81
2017-11-04T07:29:31.571Z,998.85
2017-11-04T07:30:41.321Z,998.84
2017-11-04T07:31:51.750Z,998.8
2017-11-04T07:33:01.839Z,998.82
2017-11-04T07:34:11.911Z,998.79
2017-11-04T07:35:22.334Z,998.79
2017-11-04T07:36:32.417Z,998.79
2017-11-04T07:37:42.808Z,998.8
2017-11-04T07:38:53.245Z,998.83
2017-11-04T07:40:03.627Z,998.86
2017-11-04T07:41:14.037Z,998.88
2017-11-04T07:42:24.426Z,998.88
2017-11-04T07:43:34.827Z,998.87
2017-11-04T07:44:44.569Z,998.88
2017-11-04T07:45:55.025Z,998.91
2017-11-04T07:47:05.467Z,998.8
2017-11-04T07:48:15.879Z,998.86
2017-11-04T07:49:26.276Z,998.84
2017-11-04T07:50:36.680Z,998.85
2017-11-04T07:51:47.124Z,998.81
2017-11-04T07:52:57.221Z,998.82
2017-11-04T07:54:07.292Z,998.78
2017-11-04T07:55:17.367Z,998.83
2017-11-04T07:56:27.768Z,998.79
2017-11-04T07:57:38.173Z,998.82
2017-11-04T07:58:48.563Z,998.8
2017-11-04T07:59:58.967Z,998.75
2017-11-04T08:01:08.721Z,998.76
2017-11-04T08:02:18.806Z,998.71
2017-11-04T08:03:29.239Z,998.74
2017-11-04T08:04:39.334Z,998.77
2017-11-04T08:05:49.754Z,998.77
2017-11-04T08:06:59.834Z,998.77
2017-11-04T08:08:10.243Z,998.72
2017-11-04T08:09:20.701Z,998.68
2017-11-04T08:10:30.431Z,998.74
2017-11-04T08:11:40.822Z,998.71
2017-11-04T08:12:50.905Z,998.68
2017-11-04T08:14:01.310Z,998.68
2017-11-04T08:15:11.420Z,998.71
2017-11-04T08:16:21.814Z,998.71
2017-11-04T08:17:32.233Z,998.7
2017-11-04T08:18:42.620Z,998.73
2017-11-04T08:19:53.021Z,998.72
2017-11-04T08:21:03.082Z,998.7
2017-11-04T08:22:13.151Z,998.75
2017-11-04T08:23:23.547Z,998.75
2017-11-04T08:24:33.278Z,998.74
2017-11-04T08:25:43.679Z,998.77
2017-11-04T08:26:53.804Z,998.76
2017-11-04T08:28:04.202Z,998.75
2017-11-04T08:29:13.931Z,998.73
2017-11-04T08:30:24.032Z,998.76
2017-11-04T08:31:34.444Z,998.74
2017-11-04T08:32:44.201Z,998.75
2017-11-04T08:33:54.646Z,998.74
2017-11-04T08:35:05.045Z,998.69
2017-11-04T08:36:15.465Z,998.75
2017-11-04T08:37:25.217Z,998.7
2017-11-04T08:38:35.344Z,998.72
2017-11-04T08:39:45.744Z,998.76
2017-11-04T08:40:55.493Z,998.71
2017-11-04T08:42:05.566Z,998.71
2017-11-04T08:43:15.960Z,998.69
2017-11-04T08:44:26.463Z,998.7
2017-11-04T08:45:36.540Z,998.72
2017-11-04T08:46:46.626Z,998.67
2017-11-04T08:47:57.025Z,998.68
2017-11-04T08:49:07.434Z,998.69
2017-11-04T08:50:17.891Z,998.69
2017-11-04T08:51:28.321Z,998.68
2017-11-04T08:52:38.615Z,998.74
2017-11-04T08:53:48.706Z,998.67
2017-11-04T08:54:59.113Z,998.68
2017-11-04T08:56:09.234Z,998.67
2017-11-04T08:57:19.639Z,998.63
2017-11-04T08:58:30.034Z,998.67
2017-11-04T08:59:40.114Z,998.69
2017-11-04T09:00:50.537Z,998.71
2017-11-04T09:02:00.999Z,998.71
2017-11-04T09:03:11.419Z,998.75
2017-11-04T09:04:22.834Z,998.75
2017-11-04T09:05:33.241Z,998.79
2017-11-04T09:06:43.658Z,998.74
2017-11-04T09:07:54.106Z,998.76
2017-11-04T09:09:05.145Z,998.79
2017-11-04T09:10:15.651Z,998.75
2017-11-04T09:11:26.064Z,998.7
2017-11-04T09:12:36.470Z,998.76
2017-11-04T09:13:46.962Z,998.75
2017-11-04T09:14:57.369Z,998.72
2017-11-04T09:16:07.401Z,998.72
2017-11-04T09:17:17.851Z,998.74
2017-11-04T09:18:28.274Z,998.71
2017-11-04T09:19:38.353Z,998.74
2017-11-04T09:20:48.411Z,998.71
2017-11-04T09:21:58.814Z,998.76
2017-11-04T09:23:08.901Z,998.75
2017-11-04T09:24:18.994Z,998.7
2017-11-04T09:25:29.481Z,998.71
2017-11-04T09:26:39.564Z,998.67
2017-11-04T09:27:49.657Z,998.69
2017-11-04T09:29:00.051Z,998.63
2017-11-04T09:30:09.779Z,998.7
2017-11-04T09:31:20.253Z,998.69
2017-11-04T09:32:30.689Z,998.64
2017-11-04T09:33:41.106Z,998.65
2017-11-04T09:34:51.543Z,998.52
2017-11-04T09:36:01.963Z,998.58
2017-11-04T09:37:12.413Z,998.58
2017-11-04T09:38:22.487Z,998.58
2017-11-04T09:39:32.888Z,998.55
2017-11-04T09:40:43.009Z,998.57
2017-11-04T09:41:53.095Z,998.56
2017-11-04T09:43:03.217Z,998.58
2017-11-04T09:44:13.629Z,998.67
2017-11-04T09:45:24.031Z,998.61
2017-11-04T09:46:34.428Z,998.57
2017-11-04T09:47:44.823Z,998.54
2017-11-04T09:48:55.234Z,998.57
2017-11-04T09:50:05.316Z,998.52
2017-11-04T09:51:15.397Z,998.58
2017-11-04T09:52:25.802Z,998.57
2017-11-04T09:53:36.226Z,998.58
2017-11-04T09:54:46.706Z,998.49
2017-11-04T09:55:57.107Z,998.54
2017-11-04T09:57:07.518Z,998.48
2017-11-04T09:58:17.600Z,998.46
2017-11-04T09:59:27.986Z,998.48
2017-11-04T10:00:38.070Z,998.48
2017-11-04T10:01:48.510Z,998.42
2017-11-04T10:02:58.901Z,998.46
2017-11-04T10:04:09.304Z,998.4
2017-11-04T10:05:19.405Z,998.43
2017-11-04T10:06:29.474Z,998.39
2017-11-04T10:07:39.553Z,998.37
2017-11-04T10:08:49.940Z,998.36
2017-11-04T10:10:00.342Z,998.38
2017-11-04T10:11:10.762Z,998.39
2017-11-04T10:12:21.222Z,998.32
2017-11-04T10:13:30.942Z,998.28
2017-11-04T10:14:41.025Z,998.27
2017-11-04T10:15:51.412Z,998.26
2017-11-04T10:17:01.472Z,998.28
2017-11-04T10:18:11.583Z,998.23
2017-11-04T10:19:21.995Z,998.24
2017-11-04T10:20:32.406Z,998.21
2017-11-04T10:21:42.835Z,998.21
2017-11-04T10:22:53.247Z,998.19
2017-11-04T10:24:03.334Z,998.22
2017-11-04T10:25:13.072Z,998.22
2017-11-04T10:26:23.464Z,998.19
2017-11-04T10:27:33.883Z,998.18
2017-11-04T10:28:43.939Z,998.13
2017-11-04T10:29:54.376Z,998.15
2017-11-04T10:31:04.804Z,998.09
2017-11-04T10:32:15.232Z,998.16
2017-11-04T10:33:25.657Z,998.11
2017-11-04T10:34:37.146Z,998.15
2017-11-04T10:35:47.239Z,998.07
2017-11-04T10:36:57.686Z,998.12
2017-11-04T10:38:07.788Z,998.12
2017-11-04T10:39:17.861Z,998.1
2017-11-04T10:40:28.268Z,998.08
2017-11-04T10:41:38.684Z,998.19
2017-11-04T10:42:48.781Z,998.15
2017-11-04T10:43:58.869Z,998.1
2017-11-04T10:45:08.951Z,998
2017-11-04T10:46:19.031Z,998.07
2017-11-04T10:47:29.428Z,998.02
2017-11-04T10:48:39.185Z,998.01
2017-11-04T10:49:49.611Z,997.95
2017-11-04T10:51:00.010Z,997.96
2017-11-04T10:52:10.421Z,997.95
2017-11-04T10:53:20.825Z,997.94
2017-11-04T10:54:30.910Z,997.89
2017-11-04T10:55:41.331Z,997.95
2017-11-04T10:56:51.409Z,997.95
2017-11-04T10:58:01.479Z,997.91
2017-11-04T10:59:11.935Z,997.9
2017-11-04T11:00:22.005Z,997.97
2017-11-04T11:01:32.437Z,997.98
2017-11-04T11:02:42.832Z,997.94
2017-11-04T11:03:52.568Z,997.96
2017-11-04T11:05:03.032Z,997.97
2017-11-04T11:06:13.449Z,997.95
2017-11-04T11:07:23.535Z,997.92
2017-11-04T11:08:33.943Z,997.91
2017-11-04T11:09:44.391Z,997.98
2017-11-04T11:10:54.821Z,997.88
2017-11-04T11:12:05.232Z,997.98
2017-11-04T11:13:15.644Z,997.87
2017-11-04T11:14:25.701Z,997.87
2017-11-04T11:15:35.440Z,997.9
2017-11-04T11:16:45.971Z,997.84
2017-11-04T11:17:56.461Z,997.82
2017-11-04T11:19:06.604Z,997.77
2017-11-04T11:20:16.889Z,997.77
2017-11-04T11:21:27.313Z,997.76
2017-11-04T11:22:37.714Z,997.76
2017-11-04T11:23:48.115Z,997.74
2017-11-04T11:24:58.534Z,997.74
2017-11-04T11:26:08.964Z,997.72
2017-11-04T11:27:19.413Z,997.81
2017-11-04T11:28:30.030Z,997.78
2017-11-04T11:29:40.455Z,997.74
2017-11-04T11:30:50.877Z,997.82
2017-11-04T11:32:01.294Z,997.85
2017-11-04T11:33:11.693Z,997.77
2017-11-04T11:34:22.135Z,997.79
2017-11-04T11:35:32.539Z,997.79
2017-11-04T11:36:42.935Z,997.76
2017-11-04T11:37:52.356Z,997.71
2017-11-04T11:39:02.440Z,997.74
2017-11-04T11:40:12.910Z,997.71
2017-11-04T11:41:23.346Z,997.65
2017-11-04T11:42:33.781Z,997.68
2017-11-04T11:43:44.173Z,997.67
2017-11-04T11:44:54.264Z,997.68
2017-11-04T11:46:04.332Z,997.67
2017-11-04T11:47:14.399Z,997.67
2017-11-04T11:48:25.764Z,997.65
2017-11-04T11:49:36.148Z,997.6
2017-11-04T11:50:46.243Z,997.65
2017-11-04T11:51:56.326Z,997.59
2017-11-04T11:53:06.095Z,997.66
2017-11-04T11:54:16.506Z,997.65
2017-11-04T11:55:26.922Z,997.64
2017-11-04T11:56:37.319Z,997.63
2017-11-04T11:57:47.780Z,997.66
2017-11-04T11:58:58.204Z,997.67
2017-11-04T12:00:08.627Z,997.67
2017-11-04T12:01:19.044Z,997.65
2017-11-04T12:02:29.465Z,997.65
2017-11-04T12:03:39.228Z,997.65
2017-11-04T12:04:49.296Z,997.53
2017-11-04T12:05:59.368Z,997.54
2017-11-04T12:07:09.454Z,997.54
2017-11-04T12:08:19.870Z,997.55
2017-11-04T12:09:29.968Z,997.57
2017-11-04T12:10:40.060Z,997.57
2017-11-04T12:11:50.476Z,997.53
2017-11-04T12:13:00.887Z,997.52
2017-11-04T12:14:11.301Z,997.47
2017-11-04T12:15:21.722Z,997.48
2017-11-04T12:16:32.151Z,997.51
2017-11-04T12:17:42.602Z,997.54
2017-11-04T12:18:52.691Z,997.44
2017-11-04T12:20:02.814Z,997.47
2017-11-04T12:21:12.951Z,997.44
2017-11-04T12:22:23.044Z,997.49
2017-11-04T12:23:33.121Z,997.49
2017-11-04T12:24:43.194Z,997.55
2017-11-04T12:25:53.608Z,997.53
2017-11-04T12:27:04.019Z,997.52
2017-11-04T12:28:14.440Z,997.54
2017-11-04T12:29:24.517Z,997.53
2017-11-04T12:30:34.594Z,997.5
2017-11-04T12:31:45.010Z,997.54
2017-11-04T12:32:55.484Z,997.51
2017-11-04T12:34:05.914Z,997.51
2017-11-04T12:35:15.996Z,997.55
2017-11-04T12:36:25.752Z,997.54
2017-11-04T12:37:36.160Z,997.47
2017-11-04T12:38:46.623Z,997.49
2017-11-04T12:39:57.042Z,997.51
2017-11-04T12:41:07.475Z,997.46
2017-11-04T12:42:17.877Z,997.5
2017-11-04T12:43:27.975Z,997.46
2017-11-04T12:44:38.053Z,997.43
2017-11-04T12:45:48.142Z,997.43
2017-11-04T12:46:58.572Z,997.41
2017-11-04T12:48:08.672Z,997.45
2017-11-04T12:49:19.088Z,997.41
2017-11-04T12:50:28.888Z,997.44
2017-11-04T12:51:38.959Z,997.51
2017-11-04T12:52:49.367Z,997.48
2017-11-04T12:53:59.452Z,997.49
2017-11-04T12:55:09.861Z,997.41
2017-11-04T12:56:20.307Z,997.5
2017-11-04T12:57:30.404Z,997.45
2017-11-04T12:58:40.822Z,997.44
2017-11-04T12:59:51.259Z,997.46
2017-11-04T13:01:01.374Z,997.42
2017-11-04T13:02:11.501Z,997.43
2017-11-04T13:03:21.893Z,997.43
2017-11-04T13:04:31.980Z,997.4
2017-11-04T13:05:41.733Z,997.35
2017-11-04T13:06:51.831Z,997.37
2017-11-04T13:08:02.249Z,997.39
2017-11-04T13:09:12.654Z,997.35
2017-11-04T13:10:23.073Z,997.37
2017-11-04T13:11:33.482Z,997.37
2017-11-04T13:12:43.547Z,997.39
2017-11-04T13:13:53.288Z,997.33
2017-11-04T13:15:03.390Z,997.35
2017-11-04T13:16:13.801Z,997.34
2017-11-04T13:17:24.204Z,997.41
2017-11-04T13:18:34.266Z,997.33
2017-11-04T13:19:44.657Z,997.3
2017-11-04T13:20:54.434Z,997.33
2017-11-04T13:22:04.826Z,997.35
2017-11-04T13:23:14.908Z,997.35
2017-11-04T13:24:24.992Z,997.39
2017-11-04T13:25:35.459Z,997.32
2017-11-04T13:26:45.908Z,997.31
2017-11-04T13:27:56.316Z,997.38
2017-11-04T13:29:06.721Z,997.33
2017-11-04T13:30:17.148Z,997.34
2017-11-04T13:31:27.599Z,997.35
2017-11-04T13:32:38.032Z,997.37
2017-11-04T13:33:47.790Z,997.38
2017-11-04T13:34:58.213Z,997.36
2017-11-04T13:36:08.304Z,997.38
2017-11-04T13:37:18.734Z,997.36
2017-11-04T13:38:28.803Z,997.35
2017-11-04T13:39:39.237Z,997.33
2017-11-04T13:40:50.545Z,997.41
2017-11-04T13:42:00.625Z,997.37
2017-11-04T13:43:10.700Z,997.26
2017-11-04T13:44:20.785Z,997.3
2017-11-04T13:45:31.232Z,997.31
2017-11-04T13:46:41.624Z,997.32
2017-11-04T13:47:52.021Z,997.26
2017-11-04T13:49:02.423Z,997.29
2017-11-04T13:50:12.503Z,997.25
2017-11-04T13:51:22.564Z,997.29
2017-11-04T13:52:32.983Z,997.29
2017-11-04T13:53:43.380Z,997.28
2017-11-04T13:54:53.796Z,997.31
2017-11-04T13:56:04.209Z,997.3
2017-11-04T13:57:14.636Z,997.3
2017-11-04T13:58:25.054Z,997.32
2017-11-04T13:59:34.792Z,997.32
2017-11-04T14:00:45.209Z,997.33
2017-11-04T14:01:55.633Z,997.29
2017-11-04T14:03:05.767Z,997.35
2017-11-04T14:04:16.173Z,997.39
2017-11-04T14:05:26.586Z,997.35
2017-11-04T14:06:36.983Z,997.38
2017-11-04T14:07:47.401Z,997.35
2017-11-04T14:08:57.816Z,997.34
2017-11-04T14:10:07.883Z,997.35
2017-11-04T14:11:18.285Z,997.32
2017-11-04T14:12:28.718Z,997.28
2017-11-04T14:13:39.130Z,997.33
2017-11-04T14:14:48.935Z,997.35
2017-11-04T14:15:58.995Z,997.35
2017-11-04T14:17:09.077Z,997.34
2017-11-04T14:18:19.161Z,997.31
2017-11-04T14:19:29.606Z,997.31
2017-11-04T14:20:40.058Z,997.31
2017-11-04T14:21:50.151Z,997.31
2017-11-04T14:22:59.909Z,997.29
2017-11-04T14:24:10.333Z,997.28
2017-11-04T14:25:20.770Z,997.3
2017-11-04T14:26:30.858Z,997.34
2017-11-04T14:27:41.291Z,997.26
2017-11-04T14:28:51.371Z,997.29
2017-11-04T14:30:01.470Z,997.27
2017-11-04T14:31:11.894Z,997.31
2017-11-04T14:32:22.037Z,997.31
2017-11-04T14:33:32.129Z,997.34
2017-11-04T14:34:42.533Z,997.37
2017-11-04T14:35:52.935Z,997.26
2017-11-04T14:37:03.363Z,997.29
2017-11-04T14:38:13.790Z,997.27
2017-11-04T14:39:24.199Z,997.35
2017-11-04T14:40:34.276Z,997.3
2017-11-04T14:41:44.676Z,997.26
2017-11-04T14:42:55.080Z,997.27
2017-11-04T14:44:04.886Z,997.28
2017-11-04T14:45:15.318Z,997.28
2017-11-04T14:46:25.704Z,997.24
2017-11-04T14:47:36.143Z,997.26
2017-11-04T14:48:46.543Z,997.28
2017-11-04T14:49:57.372Z,997.28
2017-11-04T14:51:07.980Z,997.3
2017-11-04T14:52:18.382Z,997.27
2017-11-04T14:53:28.456Z,997.26
2017-11-04T14:54:38.890Z,997.26
2017-11-04T14:55:49.313Z,997.26
2017-11-04T14:56:59.378Z,997.26
2017-11-04T14:58:09.777Z,997.29
2017-11-04T14:59:19.849Z,997.29
2017-11-04T15:00:30.089Z,997.26
2017-11-04T15:01:40.246Z,997.23
2017-11-04T15:02:50.319Z,997.25
2017-11-04T15:04:01.645Z,997.25
2017-11-04T15:05:12.071Z,997.28
2017-11-04T15:06:22.173Z,997.35
2017-11-04T15:07:32.266Z,997.36
2017-11-04T15:08:42.686Z,997.37
2017-11-04T15:09:53.085Z,997.39
2017-11-04T15:11:03.526Z,997.34
2017-11-04T15:12:13.617Z,997.38
2017-11-04T15:13:24.114Z,997.38
2017-11-04T15:14:34.560Z,997.35
2017-11-04T15:15:45.007Z,997.37
2017-11-04T15:16:55.119Z,997.35
2017-11-04T15:18:05.202Z,997.36
2017-11-04T15:19:15.667Z,997.36